sensor_id;sensor_type;location;lat;lon;timestamp;pressure;altitude;pressure_sealevel;temperature;humidity
77482;BME280;66582;43.004;-75.010;2023-01-06T00:02:07;100032.54;;;7.91;59.88
77482;BME280;66582;43.004;-75.010;2023-01-06T00:04:33;100044.59;;;6.88;64.85
77482;BME280;66582;43.004;-75.010;2023-01-06T00:06:57;100054.13;;;7.17;66.44
77482;BME280;66582;43.004;-75.010;2023-01-06T00:09:23;100060.36;;;6.90;65.57
77482;BME280;66582;43.004;-75.010;2023-01-06T00:11:51;100057.43;;;8.13;62.15
77482;BME280;66582;43.004;-75.010;2023-01-06T00:14:14;100063.15;;;7.71;61.33
77482;BME280;66582;43.004;-75.010;2023-01-06T00:16:39;100065.89;;;7.62;60.36
77482;BME280;66582;43.004;-75.010;2023-01-06T00:19:09;100070.01;;;7.22;62.37
77482;BME280;66582;43.004;-75.010;2023-01-06T00:21:34;100068.95;;;7.65;61.81
77482;BME280;66582;43.004;-75.010;2023-01-06T00:23:59;100066.46;;;7.27;62.33
77482;BME280;66582;43.004;-75.010;2023-01-06T00:26:22;100054.64;;;8.62;59.34
77482;BME280;66582;43.004;-75.010;2023-01-06T00:29:02;100058.73;;;8.64;57.38
77482;BME280;66582;43.004;-75.010;2023-01-06T00:31:12;100071.90;;;6.92;65.07
77482;BME280;66582;43.004;-75.010;2023-01-06T00:33:37;100077.42;;;6.29;68.00
77482;BME280;66582;43.004;-75.010;2023-01-06T00:36:01;100067.30;;;8.08;62.46
77482;BME280;66582;43.004;-75.010;2023-01-06T00:38:27;100074.62;;;6.40;65.29
77482;BME280;66582;43.004;-75.010;2023-01-06T00:40:52;100078.16;;;6.30;68.88
77482;BME280;66582;43.004;-75.010;2023-01-06T00:43:16;100084.41;;;7.00;65.19
77482;BME280;66582;43.004;-75.010;2023-01-06T00:45:42;100093.58;;;6.07;70.26
77482;BME280;66582;43.004;-75.010;2023-01-06T00:48:08;100094.70;;;6.54;66.27
77482;BME280;66582;43.004;-75.010;2023-01-06T00:50:32;100085.42;;;8.23;61.57
77482;BME280;66582;43.004;-75.010;2023-01-06T00:52:58;100086.40;;;8.20;60.81
77482;BME280;66582;43.004;-75.010;2023-01-06T00:55:22;100082.10;;;8.95;58.45
77482;BME280;66582;43.004;-75.010;2023-01-06T00:57:51;100087.50;;;9.16;57.42
77482;BME280;66582;43.004;-75.010;2023-01-06T01:00:14;100096.80;;;9.23;58.33
77482;BME280;66582;43.004;-75.010;2023-01-06T01:02:38;100094.81;;;7.85;61.30
77482;BME280;66582;43.004;-75.010;2023-01-06T01:05:04;100093.86;;;8.65;58.54
77482;BME280;66582;43.004;-75.010;2023-01-06T01:07:29;100090.62;;;9.24;57.19
77482;BME280;66582;43.004;-75.010;2023-01-06T01:09:55;100091.83;;;7.80;60.65
77482;BME280;66582;43.004;-75.010;2023-01-06T01:12:20;100090.58;;;8.59;58.15
77482;BME280;66582;43.004;-75.010;2023-01-06T01:14:48;100087.56;;;9.99;55.50
77482;BME280;66582;43.004;-75.010;2023-01-06T01:17:12;100092.00;;;7.90;59.13
77482;BME280;66582;43.004;-75.010;2023-01-06T01:19:36;100088.70;;;8.42;58.18
77482;BME280;66582;43.004;-75.010;2023-01-06T01:22:00;100086.61;;;7.75;61.37
77482;BME280;66582;43.004;-75.010;2023-01-06T01:24:26;100089.43;;;7.79;60.96
77482;BME280;66582;43.004;-75.010;2023-01-06T01:26:51;100083.61;;;9.07;57.42
77482;BME280;66582;43.004;-75.010;2023-01-06T01:29:17;100079.13;;;9.37;55.81
77482;BME280;66582;43.004;-75.010;2023-01-06T01:31:42;100079.57;;;8.85;56.47
77482;BME280;66582;43.004;-75.010;2023-01-06T01:34:07;100088.17;;;7.43;62.68
77482;BME280;66582;43.004;-75.010;2023-01-06T01:36:32;100079.97;;;8.96;58.39
77482;BME280;66582;43.004;-75.010;2023-01-06T01:38:57;100072.99;;;8.58;57.74
77482;BME280;66582;43.004;-75.010;2023-01-06T01:41:25;100067.74;;;8.64;57.99
77482;BME280;66582;43.004;-75.010;2023-01-06T01:43:50;100065.47;;;9.61;55.35
77482;BME280;66582;43.004;-75.010;2023-01-06T01:46:18;100070.71;;;9.35;54.78
77482;BME280;66582;43.004;-75.010;2023-01-06T01:48:39;100072.33;;;8.71;57.71
77482;BME280;66582;43.004;-75.010;2023-01-06T01:51:06;100077.12;;;6.67;62.50
77482;BME280;66582;43.004;-75.010;2023-01-06T01:53:33;100068.18;;;8.08;60.35
77482;BME280;66582;43.004;-75.010;2023-01-06T01:55:57;100068.38;;;6.89;62.25
77482;BME280;66582;43.004;-75.010;2023-01-06T01:58:22;100061.55;;;7.23;61.68
77482;BME280;66582;43.004;-75.010;2023-01-06T02:00:45;100069.33;;;5.40;69.05
77482;BME280;66582;43.004;-75.010;2023-01-06T02:03:12;100061.13;;;6.13;66.37
77482;BME280;66582;43.004;-75.010;2023-01-06T02:05:38;100066.75;;;5.67;70.23
77482;BME280;66582;43.004;-75.010;2023-01-06T02:08:06;100065.72;;;5.42;70.55
77482;BME280;66582;43.004;-75.010;2023-01-06T02:10:26;100066.55;;;5.60;69.86
77482;BME280;66582;43.004;-75.010;2023-01-06T02:12:56;100068.12;;;4.61;75.37
77482;BME280;66582;43.004;-75.010;2023-01-06T02:15:27;100064.21;;;4.02;77.11
77482;BME280;66582;43.004;-75.010;2023-01-06T02:18:01;100065.27;;;4.37;76.22
77482;BME280;66582;43.004;-75.010;2023-01-06T02:20:26;100065.25;;;4.71;76.22
77482;BME280;66582;43.004;-75.010;2023-01-06T02:22:48;100072.92;;;3.69;80.88
77482;BME280;66582;43.004;-75.010;2023-01-06T02:25:09;100076.49;;;3.76;80.78
77482;BME280;66582;43.004;-75.010;2023-01-06T02:27:40;100080.37;;;3.10;84.46
77482;BME280;66582;43.004;-75.010;2023-01-06T02:30:00;100077.61;;;3.03;83.72
77482;BME280;66582;43.004;-75.010;2023-01-06T02:32:24;100080.00;;;2.78;85.99
77482;BME280;66582;43.004;-75.010;2023-01-06T02:34:50;100073.18;;;3.93;82.12
77482;BME280;66582;43.004;-75.010;2023-01-06T02:37:15;100074.65;;;3.46;85.49
77482;BME280;66582;43.004;-75.010;2023-01-06T02:39:39;100067.76;;;3.22;83.69
77482;BME280;66582;43.004;-75.010;2023-01-06T02:42:04;100065.42;;;3.41;84.25
77482;BME280;66582;43.004;-75.010;2023-01-06T02:44:28;100065.24;;;3.54;80.85
77482;BME280;66582;43.004;-75.010;2023-01-06T02:46:58;100067.56;;;3.84;80.91
77482;BME280;66582;43.004;-75.010;2023-01-06T02:49:19;100060.65;;;4.60;77.45
77482;BME280;66582;43.004;-75.010;2023-01-06T02:51:47;100061.21;;;4.63;77.10
77482;BME280;66582;43.004;-75.010;2023-01-06T02:54:10;100071.09;;;3.18;80.47
77482;BME280;66582;43.004;-75.010;2023-01-06T02:56:33;100063.34;;;5.02;75.75
77482;BME280;66582;43.004;-75.010;2023-01-06T02:58:58;100063.44;;;4.67;75.95
77482;BME280;66582;43.004;-75.010;2023-01-06T03:01:25;100058.50;;;6.58;68.01
77482;BME280;66582;43.004;-75.010;2023-01-06T03:03:46;100056.90;;;7.48;64.77
77482;BME280;66582;43.004;-75.010;2023-01-06T03:06:14;100059.15;;;8.34;61.10
77482;BME280;66582;43.004;-75.010;2023-01-06T03:08:36;100061.71;;;8.59;59.02
77482;BME280;66582;43.004;-75.010;2023-01-06T03:11:02;100062.25;;;8.95;57.33
77482;BME280;66582;43.004;-75.010;2023-01-06T03:13:31;100062.40;;;8.34;58.73
77482;BME280;66582;43.004;-75.010;2023-01-06T03:15:51;100067.03;;;7.27;64.63
77482;BME280;66582;43.004;-75.010;2023-01-06T03:18:17;100074.29;;;6.36;66.45
77482;BME280;66582;43.004;-75.010;2023-01-06T03:20:42;100070.50;;;7.30;64.97
77482;BME280;66582;43.004;-75.010;2023-01-06T03:23:07;100065.57;;;8.06;62.10
77482;BME280;66582;43.004;-75.010;2023-01-06T03:25:32;100063.89;;;9.02;59.18
77482;BME280;66582;43.004;-75.010;2023-01-06T03:27:57;100064.97;;;7.67;60.55
77482;BME280;66582;43.004;-75.010;2023-01-06T03:30:27;100061.97;;;7.55;62.76
77482;BME280;66582;43.004;-75.010;2023-01-06T03:32:52;100059.72;;;7.99;59.79
77482;BME280;66582;43.004;-75.010;2023-01-06T03:35:23;100064.85;;;6.87;61.29
77482;BME280;66582;43.004;-75.010;2023-01-06T03:37:45;100072.49;;;5.82;65.88
77482;BME280;66582;43.004;-75.010;2023-01-06T03:40:09;100071.55;;;5.06;68.62
77482;BME280;66582;43.004;-75.010;2023-01-06T03:42:34;100078.91;;;4.43;74.24
77482;BME280;66582;43.004;-75.010;2023-01-06T03:45:00;100074.69;;;4.94;71.28
77482;BME280;66582;43.004;-75.010;2023-01-06T03:47:25;100085.26;;;3.17;78.25
77482;BME280;66582;43.004;-75.010;2023-01-06T03:49:50;100081.65;;;3.38;78.22
77482;BME280;66582;43.004;-75.010;2023-01-06T03:52:15;100077.65;;;4.37;75.75
77482;BME280;66582;43.004;-75.010;2023-01-06T03:54:41;100080.17;;;4.50;74.39
77482;BME280;66582;43.004;-75.010;2023-01-06T03:57:05;100088.03;;;4.20;75.50
77482;BME280;66582;43.004;-75.010;2023-01-06T03:59:27;100094.15;;;3.60;78.58
77482;BME280;66582;43.004;-75.010;2023-01-06T04:01:51;100093.15;;;3.76;79.49
77482;BME280;66582;43.004;-75.010;2023-01-06T04:04:17;100101.24;;;3.25;80.32
77482;BME280;66582;43.004;-75.010;2023-01-06T04:06:41;100116.69;;;2.05;86.49
77482;BME280;66582;43.004;-75.010;2023-01-06T04:09:06;100110.29;;;1.71;89.74
77482;BME280;66582;43.004;-75.010;2023-01-06T04:11:31;100102.27;;;2.72;88.36
77482;BME280;66582;43.004;-75.010;2023-01-06T04:13:56;100100.95;;;2.15;87.79
77482;BME280;66582;43.004;-75.010;2023-01-06T04:16:22;100091.66;;;2.53;86.18
77482;BME280;66582;43.004;-75.010;2023-01-06T04:18:47;100073.53;;;4.79;78.75
77482;BME280;66582;43.004;-75.010;2023-01-06T04:21:13;100066.30;;;6.18;71.49
77482;BME280;66582;43.004;-75.010;2023-01-06T04:23:38;100060.64;;;7.35;66.28
77482;BME280;66582;43.004;-75.010;2023-01-06T04:26:03;100068.38;;;6.00;66.36
77482;BME280;66582;43.004;-75.010;2023-01-06T04:28:28;100075.45;;;4.90;73.46
77482;BME280;66582;43.004;-75.010;2023-01-06T04:30:57;100083.75;;;3.07;79.76
77482;BME280;66582;43.004;-75.010;2023-01-06T04:33:21;100076.52;;;3.80;77.18
77482;BME280;66582;43.004;-75.010;2023-01-06T04:35:44;100071.87;;;3.87;77.02
77482;BME280;66582;43.004;-75.010;2023-01-06T04:38:09;100074.82;;;3.63;79.32
77482;BME280;66582;43.004;-75.010;2023-01-06T04:40:35;100064.52;;;4.30;76.41
77482;BME280;66582;43.004;-75.010;2023-01-06T04:43:00;100063.58;;;5.01;74.14
77482;BME280;66582;43.004;-75.010;2023-01-06T04:45:25;100056.03;;;6.33;68.13
77482;BME280;66582;43.004;-75.010;2023-01-06T04:47:51;100052.19;;;6.51;66.35
77482;BME280;66582;43.004;-75.010;2023-01-06T04:50:24;100052.16;;;5.88;66.11
77482;BME280;66582;43.004;-75.010;2023-01-06T04:52:43;100053.81;;;6.33;65.78
77482;BME280;66582;43.004;-75.010;2023-01-06T04:55:08;100049.19;;;6.11;65.41
77482;BME280;66582;43.004;-75.010;2023-01-06T04:57:32;100042.15;;;6.47;64.06
77482;BME280;66582;43.004;-75.010;2023-01-06T04:59:59;100036.09;;;6.73;62.36
77482;BME280;66582;43.004;-75.010;2023-01-06T05:02:27;100036.85;;;7.97;59.89
77482;BME280;66582;43.004;-75.010;2023-01-06T05:04:49;100044.09;;;8.19;58.12
77482;BME280;66582;43.004;-75.010;2023-01-06T05:07:15;100050.22;;;7.10;60.94
77482;BME280;66582;43.004;-75.010;2023-01-06T05:09:40;100060.42;;;5.35;65.12
77482;BME280;66582;43.004;-75.010;2023-01-06T05:12:05;100062.88;;;5.87;65.43
77482;BME280;66582;43.004;-75.010;2023-01-06T05:14:30;100056.79;;;6.24;64.76
77482;BME280;66582;43.004;-75.010;2023-01-06T05:16:55;100061.06;;;5.83;65.17
77482;BME280;66582;43.004;-75.010;2023-01-06T05:19:20;100054.80;;;5.21;67.60
77482;BME280;66582;43.004;-75.010;2023-01-06T05:21:45;100055.58;;;5.34;67.86
77482;BME280;66582;43.004;-75.010;2023-01-06T05:24:11;100061.69;;;5.52;67.14
77482;BME280;66582;43.004;-75.010;2023-01-06T05:26:36;100051.29;;;5.26;67.99
77482;BME280;66582;43.004;-75.010;2023-01-06T05:29:02;100046.29;;;4.13;71.22
77482;BME280;66582;43.004;-75.010;2023-01-06T05:31:27;100039.42;;;4.66;71.97
77482;BME280;66582;43.004;-75.010;2023-01-06T05:33:53;100035.83;;;3.63;74.78
77482;BME280;66582;43.004;-75.010;2023-01-06T05:36:18;100036.05;;;3.85;74.30
77482;BME280;66582;43.004;-75.010;2023-01-06T05:38:44;100037.80;;;4.67;73.18
77482;BME280;66582;43.004;-75.010;2023-01-06T05:41:09;100037.80;;;4.00;73.60
77482;BME280;66582;43.004;-75.010;2023-01-06T05:43:35;100036.64;;;3.83;74.05
77482;BME280;66582;43.004;-75.010;2023-01-06T05:46:04;100025.89;;;5.34;69.30
77482;BME280;66582;43.004;-75.010;2023-01-06T05:48:26;100024.15;;;5.40;68.19
77482;BME280;66582;43.004;-75.010;2023-01-06T05:50:50;100020.89;;;4.71;68.27
77482;BME280;66582;43.004;-75.010;2023-01-06T05:53:15;100023.50;;;4.60;69.83
77482;BME280;66582;43.004;-75.010;2023-01-06T05:55:41;100023.29;;;3.01;73.48
77482;BME280;66582;43.004;-75.010;2023-01-06T05:58:06;100018.43;;;5.35;66.82
77482;BME280;66582;43.004;-75.010;2023-01-06T06:00:32;100024.87;;;3.80;68.82
77482;BME280;66582;43.004;-75.010;2023-01-06T06:02:57;100023.92;;;5.93;63.81
77482;BME280;66582;43.004;-75.010;2023-01-06T06:05:22;100024.43;;;5.61;63.40
77482;BME280;66582;43.004;-75.010;2023-01-06T06:07:52;100020.27;;;6.43;61.09
77482;BME280;66582;43.004;-75.010;2023-01-06T06:10:12;100008.84;;;7.25;59.60
77482;BME280;66582;43.004;-75.010;2023-01-06T06:12:37;100004.69;;;7.03;58.19
77482;BME280;66582;43.004;-75.010;2023-01-06T06:15:04;100008.19;;;6.73;58.68
77482;BME280;66582;43.004;-75.010;2023-01-06T06:17:30;100008.92;;;5.81;60.59
77482;BME280;66582;43.004;-75.010;2023-01-06T06:19:54;99998.89;;;6.54;59.79
77482;BME280;66582;43.004;-75.010;2023-01-06T06:22:20;100010.68;;;4.86;64.34
77482;BME280;66582;43.004;-75.010;2023-01-06T06:24:45;100009.66;;;5.36;62.29
77482;BME280;66582;43.004;-75.010;2023-01-06T06:27:10;100009.61;;;5.67;62.26
77482;BME280;66582;43.004;-75.010;2023-01-06T06:29:35;100015.82;;;4.75;64.83
77482;BME280;66582;43.004;-75.010;2023-01-06T06:32:00;100026.37;;;2.69;70.75
77482;BME280;66582;43.004;-75.010;2023-01-06T06:34:26;100022.01;;;2.87;73.06
77482;BME280;66582;43.004;-75.010;2023-01-06T06:36:51;100040.53;;;0.33;82.90
77482;BME280;66582;43.004;-75.010;2023-01-06T06:39:16;100053.76;;;-0.70;90.39
77482;BME280;66582;43.004;-75.010;2023-01-06T06:41:41;100052.20;;;0.61;89.14
77482;BME280;66582;43.004;-75.010;2023-01-06T06:44:07;100051.07;;;1.37;85.91
77482;BME280;66582;43.004;-75.010;2023-01-06T06:46:32;100050.53;;;1.01;84.57
77482;BME280;66582;43.004;-75.010;2023-01-06T06:48:57;100042.26;;;1.51;85.49
77482;BME280;66582;43.004;-75.010;2023-01-06T06:51:23;100028.90;;;3.13;78.30
77482;BME280;66582;43.004;-75.010;2023-01-06T06:53:49;100024.59;;;2.44;80.24
77482;BME280;66582;43.004;-75.010;2023-01-06T06:56:17;100021.81;;;3.91;73.29
77482;BME280;66582;43.004;-75.010;2023-01-06T06:58:40;100023.86;;;3.94;71.65
77482;BME280;66582;43.004;-75.010;2023-01-06T07:01:05;100028.90;;;5.29;66.25
77482;BME280;66582;43.004;-75.010;2023-01-06T07:03:30;100027.67;;;5.28;67.03
77482;BME280;66582;43.004;-75.010;2023-01-06T07:05:55;100024.98;;;5.97;63.63
77482;BME280;66582;43.004;-75.010;2023-01-06T07:08:20;100030.11;;;5.58;63.44
77482;BME280;66582;43.004;-75.010;2023-01-06T07:10:46;100026.50;;;6.10;61.74
77482;BME280;66582;43.004;-75.010;2023-01-06T07:13:11;100024.93;;;6.11;62.00
77482;BME280;66582;43.004;-75.010;2023-01-06T07:15:36;100031.63;;;5.71;62.54
77482;BME280;66582;43.004;-75.010;2023-01-06T07:18:02;100033.94;;;5.37;63.03
77482;BME280;66582;43.004;-75.010;2023-01-06T07:20:27;100030.23;;;5.24;63.72
77482;BME280;66582;43.004;-75.010;2023-01-06T07:22:52;100032.05;;;6.45;60.22
77482;BME280;66582;43.004;-75.010;2023-01-06T07:25:17;100036.12;;;6.36;59.04
77482;BME280;66582;43.004;-75.010;2023-01-06T07:27:43;100033.47;;;6.44;59.80
77482;BME280;66582;43.004;-75.010;2023-01-06T07:30:10;100027.89;;;7.21;57.22
77482;BME280;66582;43.004;-75.010;2023-01-06T07:32:33;100039.47;;;5.63;61.08
77482;BME280;66582;43.004;-75.010;2023-01-06T07:34:59;100047.93;;;3.86;65.95
77482;BME280;66582;43.004;-75.010;2023-01-06T07:37:24;100042.06;;;5.68;61.33
77482;BME280;66582;43.004;-75.010;2023-01-06T07:39:50;100036.12;;;6.53;59.44
77482;BME280;66582;43.004;-75.010;2023-01-06T07:42:15;100033.79;;;5.64;60.51
77482;BME280;66582;43.004;-75.010;2023-01-06T07:44:40;100027.24;;;5.95;59.80
77482;BME280;66582;43.004;-75.010;2023-01-06T07:47:06;100030.83;;;4.16;63.33
77482;BME280;66582;43.004;-75.010;2023-01-06T07:49:32;100036.83;;;4.15;66.41
77482;BME280;66582;43.004;-75.010;2023-01-06T07:51:56;100036.20;;;3.31;68.90
77482;BME280;66582;43.004;-75.010;2023-01-06T07:54:22;100035.39;;;3.78;69.25
77482;BME280;66582;43.004;-75.010;2023-01-06T07:56:48;100045.93;;;2.36;73.92
77482;BME280;66582;43.004;-75.010;2023-01-06T07:59:12;100034.31;;;4.68;66.84
77482;BME280;66582;43.004;-75.010;2023-01-06T08:01:38;100041.65;;;4.28;66.51
77482;BME280;66582;43.004;-75.010;2023-01-06T08:04:03;100044.74;;;3.61;69.78
77482;BME280;66582;43.004;-75.010;2023-01-06T08:06:29;100040.86;;;4.72;65.86
77482;BME280;66582;43.004;-75.010;2023-01-06T08:08:54;100032.12;;;5.88;63.00
77482;BME280;66582;43.004;-75.010;2023-01-06T08:11:20;100033.87;;;5.69;61.85
77482;BME280;66582;43.004;-75.010;2023-01-06T08:13:44;100039.05;;;5.28;61.71
77482;BME280;66582;43.004;-75.010;2023-01-06T08:16:11;100037.31;;;4.83;62.76
77482;BME280;66582;43.004;-75.010;2023-01-06T08:18:36;100034.89;;;5.54;62.19
77482;BME280;66582;43.004;-75.010;2023-01-06T08:21:01;100031.24;;;6.41;59.26
77482;BME280;66582;43.004;-75.010;2023-01-06T08:23:26;100027.70;;;6.98;57.68
77482;BME280;66582;43.004;-75.010;2023-01-06T08:25:55;100027.28;;;5.78;58.75
77482;BME280;66582;43.004;-75.010;2023-01-06T08:28:17;100031.29;;;5.56;59.93
77482;BME280;66582;43.004;-75.010;2023-01-06T08:30:42;100040.18;;;4.30;64.21
77482;BME280;66582;43.004;-75.010;2023-01-06T08:33:07;100052.79;;;2.19;73.53
77482;BME280;66582;43.004;-75.010;2023-01-06T08:35:32;100042.67;;;4.28;69.41
77482;BME280;66582;43.004;-75.010;2023-01-06T08:37:57;100030.40;;;5.21;64.23
77482;BME280;66582;43.004;-75.010;2023-01-06T08:40:24;100027.71;;;6.00;61.18
77482;BME280;66582;43.004;-75.010;2023-01-06T08:42:49;100028.34;;;5.11;63.27
77482;BME280;66582;43.004;-75.010;2023-01-06T08:45:14;100036.25;;;3.72;65.73
77482;BME280;66582;43.004;-75.010;2023-01-06T08:47:39;100037.80;;;3.65;68.55
77482;BME280;66582;43.004;-75.010;2023-01-06T08:50:05;100040.50;;;3.10;70.07
77482;BME280;66582;43.004;-75.010;2023-01-06T08:52:30;100032.83;;;4.44;66.95
77482;BME280;66582;43.004;-75.010;2023-01-06T08:54:56;100022.62;;;3.92;67.88
77482;BME280;66582;43.004;-75.010;2023-01-06T08:57:21;100019.63;;;4.08;65.80
77482;BME280;66582;43.004;-75.010;2023-01-06T08:59:46;100019.94;;;5.42;63.14
77482;BME280;66582;43.004;-75.010;2023-01-06T09:02:12;100020.25;;;4.43;64.59
77482;BME280;66582;43.004;-75.010;2023-01-06T09:04:37;100016.78;;;4.22;65.02
77482;BME280;66582;43.004;-75.010;2023-01-06T09:07:03;100021.93;;;2.49;71.72
77482;BME280;66582;43.004;-75.010;2023-01-06T09:09:28;100015.16;;;3.98;68.55
77482;BME280;66582;43.004;-75.010;2023-01-06T09:11:53;100018.93;;;3.76;68.99
77482;BME280;66582;43.004;-75.010;2023-01-06T09:14:18;100014.33;;;3.38;70.73
77482;BME280;66582;43.004;-75.010;2023-01-06T09:16:43;100015.65;;;4.36;67.42
77482;BME280;66582;43.004;-75.010;2023-01-06T09:19:09;100013.33;;;4.16;66.92
77482;BME280;66582;43.004;-75.010;2023-01-06T09:21:34;100016.24;;;3.12;68.96
77482;BME280;66582;43.004;-75.010;2023-01-06T09:23:59;100013.49;;;4.77;65.97
77482;BME280;66582;43.004;-75.010;2023-01-06T09:26:24;100011.76;;;4.87;64.08
77482;BME280;66582;43.004;-75.010;2023-01-06T09:28:50;100013.31;;;5.96;60.74
77482;BME280;66582;43.004;-75.010;2023-01-06T09:31:15;100009.85;;;6.23;59.30
77482;BME280;66582;43.004;-75.010;2023-01-06T09:33:40;100007.03;;;6.39;58.47
77482;BME280;66582;43.004;-75.010;2023-01-06T09:36:06;100004.31;;;6.97;56.68
77482;BME280;66582;43.004;-75.010;2023-01-06T09:38:30;99995.46;;;8.43;54.15
77482;BME280;66582;43.004;-75.010;2023-01-06T09:41:09;99994.49;;;8.02;53.10
77482;BME280;66582;43.004;-75.010;2023-01-06T09:43:27;99995.75;;;7.85;53.08
77482;BME280;66582;43.004;-75.010;2023-01-06T09:45:49;99997.60;;;6.42;55.91
77482;BME280;66582;43.004;-75.010;2023-01-06T09:48:16;100004.38;;;5.02;60.00
77482;BME280;66582;43.004;-75.010;2023-01-06T09:50:40;100005.71;;;4.55;61.68
77482;BME280;66582;43.004;-75.010;2023-01-06T09:53:05;100004.83;;;5.95;59.31
77482;BME280;66582;43.004;-75.010;2023-01-06T09:55:33;100006.50;;;5.80;58.27
77482;BME280;66582;43.004;-75.010;2023-01-06T09:57:57;99998.85;;;6.82;56.43
77482;BME280;66582;43.004;-75.010;2023-01-06T10:00:27;99996.01;;;6.65;55.93
77482;BME280;66582;43.004;-75.010;2023-01-06T10:02:43;99996.64;;;6.54;55.63
77482;BME280;66582;43.004;-75.010;2023-01-06T10:05:18;99996.26;;;6.80;55.65
77482;BME280;66582;43.004;-75.010;2023-01-06T10:07:40;99995.71;;;7.14;54.70
77482;BME280;66582;43.004;-75.010;2023-01-06T10:10:06;99992.62;;;6.46;55.21
77482;BME280;66582;43.004;-75.010;2023-01-06T10:12:35;99988.38;;;7.64;53.31
77482;BME280;66582;43.004;-75.010;2023-01-06T10:14:58;99987.11;;;7.44;52.99
77482;BME280;66582;43.004;-75.010;2023-01-06T10:17:31;99987.20;;;7.87;52.27
77482;BME280;66582;43.004;-75.010;2023-01-06T10:19:51;99995.49;;;5.93;56.68
77482;BME280;66582;43.004;-75.010;2023-01-06T10:22:11;99991.91;;;6.24;56.23
77482;BME280;66582;43.004;-75.010;2023-01-06T10:24:42;100000.91;;;4.85;60.13
77482;BME280;66582;43.004;-75.010;2023-01-06T10:26:58;100001.26;;;5.43;59.42
77482;BME280;66582;43.004;-75.010;2023-01-06T10:29:27;100001.64;;;4.45;61.72
77482;BME280;66582;43.004;-75.010;2023-01-06T10:31:48;100002.67;;;5.61;59.53
77482;BME280;66582;43.004;-75.010;2023-01-06T10:34:18;100004.20;;;5.52;59.64
77482;BME280;66582;43.004;-75.010;2023-01-06T10:36:41;100010.52;;;4.15;62.19
77482;BME280;66582;43.004;-75.010;2023-01-06T10:39:03;100013.31;;;4.17;63.49
77482;BME280;66582;43.004;-75.010;2023-01-06T10:41:38;100010.25;;;4.82;62.69
77482;BME280;66582;43.004;-75.010;2023-01-06T10:43:53;100006.05;;;5.80;59.66
77482;BME280;66582;43.004;-75.010;2023-01-06T10:46:19;99998.12;;;6.89;56.45
77482;BME280;66582;43.004;-75.010;2023-01-06T10:48:45;99998.49;;;6.55;56.07
77482;BME280;66582;43.004;-75.010;2023-01-06T10:51:32;100001.54;;;6.07;56.35
77482;BME280;66582;43.004;-75.010;2023-01-06T10:53:35;100000.12;;;6.05;56.44
77482;BME280;66582;43.004;-75.010;2023-01-06T10:56:01;99995.09;;;6.74;54.83
77482;BME280;66582;43.004;-75.010;2023-01-06T10:58:33;100004.21;;;4.30;60.36
77482;BME280;66582;43.004;-75.010;2023-01-06T11:00:57;100005.40;;;5.92;58.23
77482;BME280;66582;43.004;-75.010;2023-01-06T11:03:16;99993.42;;;6.67;56.10
77482;BME280;66582;43.004;-75.010;2023-01-06T11:05:41;99998.13;;;4.15;60.35
77482;BME280;66582;43.004;-75.010;2023-01-06T11:08:10;99997.39;;;4.87;59.66
77482;BME280;66582;43.004;-75.010;2023-01-06T11:10:35;99996.85;;;4.72;61.05
77482;BME280;66582;43.004;-75.010;2023-01-06T11:12:59;99996.85;;;4.38;62.34
77482;BME280;66582;43.004;-75.010;2023-01-06T11:15:27;99997.69;;;5.45;59.11
77482;BME280;66582;43.004;-75.010;2023-01-06T11:17:48;99993.01;;;6.52;56.09
77482;BME280;66582;43.004;-75.010;2023-01-06T11:22:40;100005.06;;;5.97;57.13
77482;BME280;66582;43.004;-75.010;2023-01-06T11:27:29;100018.86;;;3.70;63.94
77482;BME280;66582;43.004;-75.010;2023-01-06T11:29:54;100014.06;;;3.81;63.54
77482;BME280;66582;43.004;-75.010;2023-01-06T11:32:22;100017.15;;;4.47;61.98
77482;BME280;66582;43.004;-75.010;2023-01-06T11:34:52;100021.07;;;4.69;62.18
77482;BME280;66582;43.004;-75.010;2023-01-06T11:37:10;100021.94;;;4.85;60.88
77482;BME280;66582;43.004;-75.010;2023-01-06T11:39:36;100030.84;;;3.39;63.10
77482;BME280;66582;43.004;-75.010;2023-01-06T11:42:07;100028.59;;;4.64;61.69
77482;BME280;66582;43.004;-75.010;2023-01-06T11:44:30;100026.78;;;5.61;59.23
77482;BME280;66582;43.004;-75.010;2023-01-06T11:46:54;100026.63;;;4.69;60.05
77482;BME280;66582;43.004;-75.010;2023-01-06T11:49:20;100027.00;;;5.43;58.94
77482;BME280;66582;43.004;-75.010;2023-01-06T11:51:47;100027.22;;;6.59;56.04
77482;BME280;66582;43.004;-75.010;2023-01-06T11:56:32;100033.82;;;4.67;63.07
77482;BME280;66582;43.004;-75.010;2023-01-06T11:59:03;100043.79;;;2.33;70.11
77482;BME280;66582;43.004;-75.010;2023-01-06T12:01:29;100035.51;;;3.97;65.20
77482;BME280;66582;43.004;-75.010;2023-01-06T12:03:50;100038.11;;;4.29;64.04
77482;BME280;66582;43.004;-75.010;2023-01-06T12:06:20;100044.16;;;4.54;62.46
77482;BME280;66582;43.004;-75.010;2023-01-06T12:08:43;100040.44;;;4.63;62.06
77482;BME280;66582;43.004;-75.010;2023-01-06T12:11:10;100037.52;;;6.29;59.05
77482;BME280;66582;43.004;-75.010;2023-01-06T12:13:29;100041.23;;;5.75;58.89
77482;BME280;66582;43.004;-75.010;2023-01-06T12:15:59;100038.59;;;6.30;57.28
77482;BME280;66582;43.004;-75.010;2023-01-06T12:18:23;100048.04;;;5.41;59.04
77482;BME280;66582;43.004;-75.010;2023-01-06T12:20:47;100049.66;;;3.88;63.71
77482;BME280;66582;43.004;-75.010;2023-01-06T12:23:13;100049.22;;;4.85;61.50
77482;BME280;66582;43.004;-75.010;2023-01-06T12:25:38;100050.59;;;4.96;61.35
77482;BME280;66582;43.004;-75.010;2023-01-06T12:28:02;100050.20;;;6.06;58.10
77482;BME280;66582;43.004;-75.010;2023-01-06T12:30:30;100052.08;;;6.01;56.95
77482;BME280;66582;43.004;-75.010;2023-01-06T12:32:54;100056.71;;;4.68;60.75
77482;BME280;66582;43.004;-75.010;2023-01-06T12:35:20;100056.25;;;5.99;59.41
77482;BME280;66582;43.004;-75.010;2023-01-06T12:37:46;100056.99;;;5.62;59.00